Main page
METAR-TAF:

METAR-TAF

Airports :

Zvartnots International Airport

Yerevan, Armenia

latitude: 40-08-50N, longitude: 044-23-45E, elevation: 865 m

Current weather observation

The report was made 16 minutes ago, at 16:00 UTC
Wind 3 kt from the Northwest
Temperature 26°C
Humidity 37%
Pressure 1010 hPa
Visibility 10 km or more
Scattered clouds at a height of 4000 ft, Cumulonimbus.
thunderstorm in vicinity

METAR: UDYZ 231600Z 31003KT 9999 VCTS SCT040CB 26/10 Q1010 R09/000070 NOSIG

Time: 20:16 (16:16 UTC)

Forecast

The report was made 5 hours and 11 minutes ago, at 11:05 UTC
Forecast valid from 23 at 12 UTC to 24 at 12 UTC
Wind 6 kt from the Southwest
Visibility 10 km or more
Few clouds at a height of 4000 ft
Scattered clouds at a height of 10000 ft
Temporary
from 23 at 12 UTC to 23 at 22 UTC
Wind 20 kt from variable directions with gusts up to 30 kt
Broken clouds at a height of 3000 ft, Cumulonimbus.
thunderstorm, light rain

TAF: UDYZ 231105Z 2312/2412 22006KT 9999 FEW040 SCT100 TEMPO 2312/2322 VRB20G30KT -TSRA BKN030CB

Weather observations and forecasts of more than 4000 airports (METAR and TAF reports).

The available stations are represented by yellow and red dots on the map.

Hover mouse over dot to see the name of the station.

Then click to see weather observations and forecasts.

To change the map : click on the green buttons with a black cross to zoom in, on the green button with a dash to zoom out, or on the green arrows for adjacent maps.


METAR-TAF: